Weather History for Perry, FL

Change the Weather History Date:

Saturday, March 2, 2013

  Actual Average (KCTY) Record (KCTY)
Temperature  
Mean Temperature 43 °F 60 °F  
Max Temperature 53 °F 73 °F 80 °F (2002)
Min Temperature 33 °F 46 °F 30 °F (2005)
Degree Days  
Heating Degree Days 22 7  
Month to date heating degree days 14  
Since 1 July heating degree days 1134  
Cooling Degree Days 0 1  
Month to date cooling degree days 2  
Year to date cooling degree days 29  
Moisture  
Dew Point 24 °F    
Average Humidity 54    
Maximum Humidity 93    
Minimum Humidity 18    
Precipitation  
Precipitation 0.00 in 0.12 in 0.75 in (2007)
Month to date precipitation 0.23  
Year to date precipitation 7.54  
Sea Level Pressure  
Sea Level Pressure 30.05 in    
Wind  
Wind Speed 6 mph (NW)    
Max Wind Speed 18 mph    
Max Gust Speed 26 mph    
Visibility 10 miles    
Events      
T = Trace of Precipitation, MM = Missing Value Source: NWS Daily Summary

Daily Weather History Graph

Daily Weather History Graph

Search for Another Location

Airport:

Trip Planner

Search our weather history database for the weather conditions in past years. The results will help you decide how hot, cold, wet, or windy it might be!

Date:

Astronomy

Mar. 02, 2013 Rise Set
Actual Time 6:58 AM EST 6:34 PM EST
Civil Twilight 6:34 AM EST 6:58 PM EST
Nautical Twilight 6:07 AM EST 7:26 PM EST
Astronomical Twilight 5:39 AM EST 7:53 PM EST
Moon 11:45 PM EST (3/2) 9:51 AM EST (3/2)
Length of Visible Light 12h 23m
Length of Day
11h 35m
Waning Gibbous, 74% of the Moon is Illuminated
Mar 2
Waning Gibbous
Mar 4
Last Quarter
Mar 11
New
Mar 19
First Quarter
Mar 27
Full

Hourly Weather History & Observations

Time (EST) Temp. Windchill Dew Point Humidity Pressure Visibility Wind Dir Wind Speed Gust Speed Precip Events Conditions
12:15 AM 41.0 °F - 32.0 °F 70% 30.06 in 10.0 mi Calm Calm - N/A   Clear
12:35 AM 41.0 °F 39.0 °F 32.0 °F 70% 30.06 in 10.0 mi NW 3.5 mph - N/A   Clear
12:53 AM 37.9 °F 34.4 °F 33.1 °F 83% 30.05 in - NW 4.6 mph - N/A   Unknown
12:55 AM 39.2 °F 35.9 °F 32.0 °F 75% 30.06 in 10.0 mi NW 4.6 mph - N/A   Clear
1:15 AM 39.2 °F 35.9 °F 32.0 °F 75% 30.06 in 10.0 mi NNW 4.6 mph - N/A   Clear
1:35 AM 37.4 °F 34.9 °F 32.0 °F 81% 30.05 in 10.0 mi North 3.5 mph - N/A   Clear
1:53 AM 37.0 °F - 32.0 °F 82% 30.05 in - Calm Calm - N/A   Unknown
1:55 AM 37.4 °F - 32.0 °F 81% 30.06 in 10.0 mi Calm Calm - N/A   Clear
2:15 AM 37.4 °F - 32.0 °F 81% 30.06 in 10.0 mi Calm Calm - N/A   Clear
2:35 AM 37.4 °F - 32.0 °F 81% 30.05 in 10.0 mi Calm Calm - N/A   Clear
2:53 AM 36.0 °F - 32.0 °F 86% 30.04 in - Calm Calm - N/A   Unknown
2:55 AM 37.4 °F - 32.0 °F 81% 30.05 in 10.0 mi Calm Calm - N/A   Clear
3:15 AM 35.6 °F - 32.0 °F 87% 30.05 in 10.0 mi Calm Calm - N/A   Clear
3:35 AM 33.8 °F - 32.0 °F 93% 30.05 in 5.0 mi Calm Calm - N/A   Clear
3:53 AM 33.1 °F - 30.9 °F 92% 30.04 in - Calm Calm - N/A   Unknown
3:55 AM 33.8 °F - 32.0 °F 93% 30.04 in 10.0 mi Calm Calm - N/A   Clear
4:15 AM 35.6 °F - 32.0 °F 87% 30.04 in 7.0 mi Calm Calm - N/A   Scattered Clouds
4:53 AM 34.0 °F 28.8 °F 30.9 °F 89% 30.04 in - NW 5.8 mph - N/A   Unknown
4:55 AM 33.8 °F 28.6 °F 32.0 °F 93% 30.05 in 10.0 mi NW 5.8 mph - N/A   Scattered Clouds
5:15 AM 35.6 °F 29.9 °F 32.0 °F 87% 30.06 in 10.0 mi NW 6.9 mph - N/A   Scattered Clouds
5:35 AM 35.6 °F 30.7 °F 32.0 °F 87% 30.06 in 10.0 mi NW 5.8 mph - N/A   Scattered Clouds
5:53 AM 36.0 °F 31.1 °F 30.9 °F 82% 30.05 in - WNW 5.8 mph - N/A   Unknown
6:15 AM 35.6 °F 28.6 °F 30.2 °F 81% 30.06 in 10.0 mi NW 9.2 mph - N/A   Scattered Clouds
6:35 AM 35.6 °F 29.9 °F 30.2 °F 81% 30.06 in 10.0 mi WNW 6.9 mph - N/A   Scattered Clouds
6:53 AM 35.1 °F 29.3 °F 30.0 °F 82% 30.06 in - West 6.9 mph - N/A   Unknown
6:55 AM 35.6 °F 30.7 °F 30.2 °F 81% 30.07 in 10.0 mi WNW 5.8 mph - N/A   Scattered Clouds
7:15 AM 35.6 °F 31.7 °F 30.2 °F 81% 30.06 in 10.0 mi West 4.6 mph - N/A   Clear
7:35 AM 35.6 °F 29.9 °F 30.2 °F 81% 30.07 in 10.0 mi West 6.9 mph - N/A   Clear
7:53 AM 37.0 °F 30.4 °F 30.9 °F 79% 30.07 in - West 9.2 mph - N/A   Unknown
7:55 AM 37.4 °F 30.8 °F 30.2 °F 75% 30.08 in 10.0 mi West 9.2 mph - N/A   Clear
8:15 AM 39.2 °F 32.5 °F 30.2 °F 70% 30.09 in 10.0 mi West 10.4 mph - N/A   Clear
8:35 AM 41.0 °F 32.8 °F 28.4 °F 61% 30.10 in 10.0 mi WNW 16.1 mph - N/A   Clear
8:53 AM 41.0 °F 32.8 °F 28.9 °F 62% 30.09 in - WNW 16.1 mph 23.0 mph N/A   Unknown
8:55 AM 41.0 °F 32.8 °F 26.6 °F 57% 30.10 in 10.0 mi WNW 16.1 mph - N/A   Clear
9:15 AM 42.8 °F 36.6 °F 24.8 °F 49% 30.10 in 10.0 mi WNW 11.5 mph - N/A   Clear
9:35 AM 42.8 °F 35.4 °F 23.0 °F 46% 30.10 in 10.0 mi WNW 15.0 mph 19.6 mph N/A   Clear
9:53 AM 44.1 °F 36.8 °F 26.1 °F 49% 30.09 in - WNW 16.1 mph - N/A   Unknown
9:55 AM 44.6 °F 38.1 °F 21.2 °F 39% 30.09 in 10.0 mi WNW 13.8 mph 24.2 mph N/A   Clear
10:15 AM 44.6 °F 36.9 °F 19.4 °F 37% 30.09 in 10.0 mi WNW 18.4 mph 23.0 mph N/A   Clear
10:35 AM 46.4 °F 39.8 °F 21.2 °F 37% 30.09 in 10.0 mi NW 16.1 mph 21.9 mph N/A   Clear
10:53 AM 46.9 °F - 27.0 °F 46% 30.08 in - West 10.4 mph 24.2 mph N/A   Unknown
10:55 AM 46.4 °F 40.1 °F 21.2 °F 37% 30.09 in 10.0 mi WNW 15.0 mph 23.0 mph N/A   Clear
11:15 AM 46.4 °F 41.1 °F 21.2 °F 37% 30.09 in 10.0 mi WNW 11.5 mph 18.4 mph N/A   Clear
11:35 AM 50.0 °F - 15.8 °F 26% 30.08 in 10.0 mi WNW 15.0 mph 20.7 mph N/A   Clear
11:53 AM 48.9 °F - 24.1 °F 38% 30.06 in - West 9.2 mph 23.0 mph N/A   Unknown
11:55 AM 50.0 °F - 14.0 °F 24% 30.08 in 10.0 mi West 16.1 mph 23.0 mph N/A   Clear
12:15 PM 50.0 °F - 12.2 °F 22% 30.07 in 10.0 mi NW 15.0 mph 23.0 mph N/A   Clear
12:35 PM 51.8 °F - 14.0 °F 22% 30.07 in 10.0 mi West 16.1 mph 20.7 mph N/A   Clear
12:53 PM 51.1 °F - 26.1 °F 38% 30.04 in - West 13.8 mph 19.6 mph N/A   Unknown
12:55 PM 51.8 °F - 14.0 °F 22% 30.05 in 10.0 mi WNW 12.7 mph 18.4 mph N/A   Scattered Clouds
1:15 PM 51.8 °F - 14.0 °F 22% 30.04 in 10.0 mi WNW 8.1 mph 19.6 mph N/A   Mostly Cloudy
1:35 PM 51.8 °F - 12.2 °F 21% 30.02 in 10.0 mi West 15.0 mph 21.9 mph N/A   Scattered Clouds
1:53 PM 51.1 °F - 24.1 °F 35% 30.01 in - WNW 15.0 mph 24.2 mph N/A   Unknown
1:55 PM 51.8 °F - 12.2 °F 21% 30.01 in 10.0 mi NW 11.5 mph 23.0 mph N/A   Scattered Clouds
2:15 PM 51.8 °F - 12.2 °F 21% 30.00 in 10.0 mi WNW 9.2 mph - N/A   Scattered Clouds
2:35 PM 53.6 °F - 10.4 °F 18% 30.00 in 10.0 mi WNW 13.8 mph 26.5 mph N/A   Scattered Clouds
2:53 PM 51.1 °F - 24.1 °F 35% 29.99 in - WNW 16.1 mph 23.0 mph N/A   Unknown
2:55 PM 51.8 °F - 12.2 °F 21% 30.00 in 10.0 mi WNW 12.7 mph - N/A   Scattered Clouds
3:15 PM 51.8 °F - 10.4 °F 19% 30.00 in 10.0 mi WNW 10.4 mph 18.4 mph N/A   Clear
3:35 PM 51.8 °F - 12.2 °F 21% 29.99 in 10.0 mi NW 12.7 mph - N/A   Scattered Clouds
3:53 PM 52.0 °F - 24.1 °F 34% 29.99 in - NW 12.7 mph 25.3 mph N/A   Unknown
3:55 PM 53.6 °F - 12.2 °F 19% 29.99 in 10.0 mi NW 13.8 mph 19.6 mph N/A   Scattered Clouds
4:15 PM 51.8 °F - 12.2 °F 21% 30.00 in 10.0 mi NW 10.4 mph 19.6 mph N/A   Scattered Clouds
4:35 PM 51.8 °F - 10.4 °F 19% 29.99 in 10.0 mi NW 9.2 mph 18.4 mph N/A   Scattered Clouds
4:53 PM 52.0 °F - 24.1 °F 34% 29.98 in - NW 11.5 mph 19.6 mph N/A   Unknown
4:55 PM 51.8 °F - 12.2 °F 21% 29.99 in 10.0 mi NNW 12.7 mph 18.4 mph N/A   Scattered Clouds
5:15 PM 50.0 °F - 12.2 °F 22% 29.99 in 10.0 mi NNW 10.4 mph - N/A   Scattered Clouds
5:35 PM 50.0 °F - 15.8 °F 26% 30.00 in 10.0 mi North 12.7 mph - N/A   Scattered Clouds
5:53 PM 48.0 °F - 26.1 °F 42% 30.00 in - North 11.5 mph 19.6 mph N/A   Unknown
5:55 PM 48.2 °F - 17.6 °F 30% 30.01 in 10.0 mi North 12.7 mph - N/A   Mostly Cloudy
6:35 PM 44.6 °F 38.8 °F 19.4 °F 37% 30.02 in 10.0 mi North 11.5 mph 16.1 mph N/A   Scattered Clouds
6:53 PM 44.1 °F 40.1 °F 26.1 °F 49% 30.02 in - North 6.9 mph - N/A   Unknown
6:55 PM 44.6 °F 40.2 °F 21.2 °F 39% 30.03 in 10.0 mi North 8.1 mph - N/A   Scattered Clouds
7:15 PM 44.6 °F 38.8 °F 21.2 °F 39% 30.04 in 10.0 mi North 11.5 mph 16.1 mph N/A   Clear
7:35 PM 42.8 °F 38.0 °F 21.2 °F 42% 30.05 in 10.0 mi North 8.1 mph - N/A   Clear
7:53 PM 42.1 °F 37.1 °F 26.1 °F 53% 30.05 in - North 8.1 mph - N/A   Unknown
7:55 PM 42.8 °F 38.6 °F 21.2 °F 42% 30.06 in 10.0 mi North 6.9 mph - N/A   Clear
8:15 PM 41.0 °F 37.1 °F 23.0 °F 49% 30.07 in 10.0 mi North 5.8 mph - N/A   Clear
8:35 PM 41.0 °F 37.1 °F 23.0 °F 49% 30.08 in 10.0 mi North 5.8 mph - N/A   Clear
8:53 PM 39.0 °F 36.8 °F 26.1 °F 60% 30.07 in - NNW 3.5 mph - N/A   Unknown
8:55 PM 41.0 °F - 23.0 °F 49% 30.08 in 10.0 mi Calm Calm - N/A   Clear
9:15 PM 41.0 °F 39.0 °F 23.0 °F 49% 30.09 in 10.0 mi NW 3.5 mph - N/A   Clear
9:35 PM 39.2 °F 37.0 °F 23.0 °F 52% 30.09 in 10.0 mi NW 3.5 mph - N/A   Clear
9:53 PM 37.0 °F 33.3 °F 26.1 °F 65% 30.09 in - NW 4.6 mph - N/A   Unknown
9:55 PM 37.4 °F 33.8 °F 23.0 °F 56% 30.09 in 10.0 mi NNW 4.6 mph - N/A   Clear
10:15 PM 37.4 °F 34.9 °F 23.0 °F 56% 30.09 in 10.0 mi NW 3.5 mph - N/A   Clear
10:35 PM 37.4 °F 33.8 °F 23.0 °F 56% 30.09 in 10.0 mi NW 4.6 mph - N/A   Clear
10:53 PM 36.0 °F 32.1 °F 26.1 °F 67% 30.08 in - NW 4.6 mph - N/A   Unknown
10:55 PM 35.6 °F 31.7 °F 24.8 °F 65% 30.09 in 10.0 mi NNW 4.6 mph - N/A   Clear
11:15 PM 35.6 °F 31.7 °F 26.6 °F 70% 30.08 in 10.0 mi NNW 4.6 mph - N/A   Clear
11:35 PM 35.6 °F 32.8 °F 26.6 °F 70% 30.08 in 10.0 mi NNW 3.5 mph - N/A   Clear
11:53 PM 36.0 °F 33.3 °F 26.1 °F 67% 30.06 in - NNW 3.5 mph - N/A   Unknown
11:55 PM 35.6 °F 32.8 °F 26.6 °F 70% 30.07 in 10.0 mi NNW 3.5 mph - N/A   Clear